Terminal Aerodrome Forecast
Issued by NWS Caribou, ME

Current Version | Previous Version | Text Only | Print | Product List | Glossary On
Versions: 1 2 3 4 5 6 7 8 9 10 11 12 13 14 15 16 17 18 19
000 FTUS41 KCAR 270534 TAFBGR TAF KBGR 270534Z 2706/2806 02011G21KT P6SM OVC050 FM270730 04015G23KT 2SM -SN OVC012 FM270900 04017G27KT 1/2SM SN BLSN OVC005 FM271100 03020G30KT 1/4SM +SN BLSN VV003 FM272100 03021G28KT 3/4SM -SN BLSN OVC008=

USA.gov is the U.S. government's official web portal to all federal, state and local government web resources and services.